Time;durP1;ratioP1;P1;durP2;ratioP2;P2;SDS_P1;SDS_P2;PMS_P1;PMS_P2;Temp;Humidity;BMP_temperature;BMP_pressure;BME280_temperature;BME280_humidity;BME280_pressure;Samples;Min_cycle;Max_cycle;Signal;HPM_P1;HPM_P2
2022/08/29 00:01:06;;;;;;;2.10;0.93;;;17.30;99.90;;;;;;4994812;28;20772;-79
2022/08/29 00:03:32;;;;;;;3.80;1.00;;;17.30;99.90;;;;;;5014154;28;20560;-78
2022/08/29 00:05:57;;;;;;;3.17;1.00;;;17.30;99.90;;;;;;5014605;28;20418;-78
2022/08/29 00:08:25;;;;;;;3.20;1.47;;;17.30;99.90;;;;;;5014692;28;20193;-78
2022/08/29 00:10:51;;;;;;;1.77;0.97;;;17.20;99.90;;;;;;5014348;28;20170;-78
2022/08/29 00:13:17;;;;;;;8.43;2.10;;;17.20;99.90;;;;;;5014647;28;20423;-78
2022/08/29 00:15:46;;;;;;;3.43;0.90;;;17.20;99.90;;;;;;5014485;28;20220;-79
2022/08/29 00:18:13;;;;;;;3.13;1.63;;;17.20;99.90;;;;;;4996999;28;20698;-79
2022/08/29 00:20:38;;;;;;;2.67;0.73;;;17.20;99.90;;;;;;5014325;28;20405;-77
2022/08/29 00:23:05;;;;;;;3.27;1.03;;;17.20;99.90;;;;;;5014467;28;20439;-79
2022/08/29 00:25:31;;;;;;;4.00;1.20;;;17.20;99.90;;;;;;5014021;28;20180;-78
2022/08/29 00:27:57;;;;;;;2.77;0.63;;;17.20;99.90;;;;;;5014336;28;20412;-79
2022/08/29 00:30:27;;;;;;;3.30;1.23;;;17.20;99.90;;;;;;5014287;28;20207;-77
2022/08/29 00:32:52;;;;;;;1.97;1.03;;;17.20;99.90;;;;;;5014317;28;20407;-77
2022/08/29 00:35:39;;;;;;;4.67;2.23;;;17.30;99.90;;;;;;5014159;28;20405;-78
2022/08/29 00:38:07;;;;;;;3.10;0.90;;;17.20;99.90;;;;;;5013829;28;20193;-80
2022/08/29 00:40:36;;;;;;;2.20;1.07;;;17.20;99.90;;;;;;4996193;28;20454;-79
2022/08/29 00:43:02;;;;;;;4.80;0.63;;;17.30;99.90;;;;;;5014018;28;20427;-78
2022/08/29 00:45:28;;;;;;;5.90;0.97;;;17.20;99.90;;;;;;5013619;28;20428;-78
2022/08/29 00:47:59;;;;;;;2.70;0.80;;;17.20;99.90;;;;;;5013902;28;20210;-78
2022/08/29 00:50:32;;;;;;;3.20;1.60;;;17.20;99.90;;;;;;5014018;28;20413;-79
2022/08/29 00:52:59;;;;;;;2.80;0.93;;;17.20;99.90;;;;;;5013924;28;20524;-77
2022/08/29 00:55:30;;;;;;;3.83;1.33;;;17.20;99.90;;;;;;5013216;28;20543;-78
2022/08/29 00:58:00;;;;;;;2.50;1.43;;;17.20;99.90;;;;;;5013858;28;20425;-79
2022/08/29 01:00:26;;;;;;;8.00;1.83;;;17.30;99.90;;;;;;5013785;28;20776;-77
2022/08/29 01:02:53;;;;;;;3.60;1.03;;;17.30;99.90;;;;;;5013732;28;20601;-78
2022/08/29 01:05:20;;;;;;;4.87;1.00;;;17.30;99.90;;;;;;5013767;28;20419;-78
2022/08/29 01:07:47;;;;;;;4.70;0.80;;;17.30;99.90;;;;;;5013099;28;20941;-79
2022/08/29 01:12:14;;;;;;;7.53;1.97;;;17.30;99.90;;;;;;5013506;28;20424;-78
2022/08/29 01:13:01;;;;;;;1.60;0.47;;;17.30;99.90;;;;;;5013477;28;20399;-79
2022/08/29 01:15:29;;;;;;;3.77;1.27;;;17.30;99.90;;;;;;5013470;28;20422;-78
2022/08/29 01:17:55;;;;;;;3.77;1.37;;;17.40;99.90;;;;;;5013448;28;20433;-78
2022/08/29 01:20:35;;;;;;;5.57;1.17;;;17.30;99.90;;;;;;5013493;28;20420;-77
2022/08/29 01:23:58;;;;;;;2.37;0.57;;;17.30;99.90;;;;;;5013453;28;20646;-78
2022/08/29 01:26:27;;;;;;;5.13;0.90;;;17.30;99.90;;;;;;4952577;29;20425;-77
2022/08/29 01:28:53;;;;;;;2.40;1.10;;;17.30;99.90;;;;;;4953010;29;20935;-76
2022/08/29 01:31:22;;;;;;;6.63;1.90;;;17.40;99.90;;;;;;4982083;28;20524;-77
2022/08/29 01:33:48;;;;;;;3.90;1.47;;;17.40;99.90;;;;;;5013346;28;20412;-78
2022/08/29 01:36:22;;;;;;;6.60;1.40;;;17.30;99.90;;;;;;5013226;28;20463;-78
2022/08/29 01:38:48;;;;;;;3.40;0.90;;;17.30;99.90;;;;;;5013196;28;20414;-78
2022/08/29 01:41:16;;;;;;;2.47;0.90;;;17.30;99.90;;;;;;5012951;28;20818;-76
2022/08/29 01:43:47;;;;;;;2.70;1.80;;;17.30;99.90;;;;;;5013183;28;20419;-79
2022/08/29 01:46:16;;;;;;;5.73;1.13;;;17.30;99.90;;;;;;5013291;28;20528;-78
2022/08/29 01:48:44;;;;;;;4.17;1.13;;;17.30;99.90;;;;;;5013259;28;20421;-78
2022/08/29 01:51:11;;;;;;;5.03;1.70;;;17.40;99.90;;;;;;5013276;28;20420;-77
2022/08/29 01:53:37;;;;;;;3.13;0.93;;;17.30;99.90;;;;;;5013259;28;20462;-79
2022/08/29 01:56:15;;;;;;;5.07;2.33;;;17.30;99.90;;;;;;5012683;28;20511;-80
2022/08/29 01:58:48;;;;;;;2.13;0.80;;;17.30;99.90;;;;;;5013074;28;20484;-79
2022/08/29 02:01:21;;;;;;;2.23;0.93;;;17.30;99.90;;;;;;5013234;28;20513;-79
2022/08/29 02:03:46;;;;;;;3.50;0.93;;;17.30;99.90;;;;;;5013114;28;20428;-79
2022/08/29 02:06:12;;;;;;;2.70;1.60;;;17.30;99.90;;;;;;5013038;28;20773;-79
2022/08/29 02:08:40;;;;;;;3.33;1.57;;;17.30;99.90;;;;;;4995509;28;20181;-78
2022/08/29 02:11:08;;;;;;;3.10;1.23;;;17.30;99.90;;;;;;5012653;28;20306;-79
2022/08/29 02:13:36;;;;;;;2.90;1.50;;;17.30;99.90;;;;;;5013009;28;20455;-79
2022/08/29 02:16:02;;;;;;;6.67;1.27;;;17.30;99.90;;;;;;5012812;28;21029;-79
2022/08/29 02:18:27;;;;;;;4.57;1.20;;;17.30;99.90;;;;;;5012741;28;20424;-79
2022/08/29 02:20:53;;;;;;;4.00;1.27;;;17.30;99.90;;;;;;5014770;28;20408;-79
2022/08/29 02:23:18;;;;;;;4.87;1.40;;;17.30;99.90;;;;;;5016739;28;20184;-78
2022/08/29 02:25:46;;;;;;;3.53;1.60;;;17.30;99.90;;;;;;5016237;28;20693;-77
2022/08/29 02:28:14;;;;;;;4.80;1.13;;;17.30;99.90;;;;;;5016559;28;20165;-79
2022/08/29 02:30:46;;;;;;;4.83;1.20;;;17.30;99.90;;;;;;5016550;28;20764;-79
2022/08/29 02:33:12;;;;;;;3.93;1.60;;;17.30;99.90;;;;;;5016564;28;20446;-79
2022/08/29 02:35:38;;;;;;;3.67;1.70;;;17.30;99.90;;;;;;5016363;28;20963;-79
2022/08/29 02:38:05;;;;;;;8.10;1.20;;;17.30;99.90;;;;;;5016450;28;20462;-79
2022/08/29 02:40:30;;;;;;;3.23;1.00;;;17.30;99.90;;;;;;5015995;28;20417;-79
2022/08/29 02:42:56;;;;;;;4.53;1.63;;;17.30;99.90;;;;;;4998699;28;20478;-78
2022/08/29 02:45:22;;;;;;;7.60;1.90;;;17.30;99.90;;;;;;5016191;28;20172;-77
2022/08/29 02:47:49;;;;;;;9.13;2.70;;;17.30;99.90;;;;;;5016190;28;20246;-77
2022/08/29 02:50:15;;;;;;;3.23;1.20;;;17.30;99.90;;;;;;5016193;28;20415;-78
2022/08/29 02:52:42;;;;;;;4.47;1.60;;;17.30;99.90;;;;;;5016060;28;20481;-78
2022/08/29 02:55:10;;;;;;;2.60;0.90;;;17.30;99.90;;;;;;5015541;28;20490;-79
2022/08/29 02:57:36;;;;;;;2.60;1.00;;;17.30;99.90;;;;;;5015889;28;20495;-77
2022/08/29 03:00:05;;;;;;;3.20;1.17;;;17.30;99.90;;;;;;5015857;28;20415;-77
2022/08/29 03:02:30;;;;;;;4.73;1.33;;;17.30;99.90;;;;;;5015903;28;20168;-79
2022/08/29 03:04:58;;;;;;;5.40;1.30;;;17.30;99.90;;;;;;5015843;28;20429;-77
2022/08/29 03:07:24;;;;;;;4.73;1.33;;;17.30;99.90;;;;;;5015921;28;20168;-78
2022/08/29 03:09:50;;;;;;;2.33;1.23;;;17.30;99.90;;;;;;5015788;28;20439;-77
2022/08/29 03:12:15;;;;;;;6.50;2.03;;;17.30;99.90;;;;;;5015315;28;20516;-78
2022/08/29 03:14:40;;;;;;;4.20;2.17;;;17.30;99.90;;;;;;5015792;28;20260;-78
2022/08/29 03:17:06;;;;;;;4.60;1.97;;;17.30;99.90;;;;;;5015779;28;20210;-77
2022/08/29 03:19:32;;;;;;;7.87;2.00;;;17.30;99.90;;;;;;5015658;28;20244;-78
2022/08/29 03:21:59;;;;;;;3.93;1.30;;;17.30;99.90;;;;;;5015690;28;20261;-78
2022/08/29 03:24:24;;;;;;;5.90;1.63;;;17.30;99.90;;;;;;5015559;28;20800;-80
2022/08/29 03:26:50;;;;;;;3.30;1.37;;;17.30;99.90;;;;;;5015232;28;20499;-80
2022/08/29 03:29:15;;;;;;;3.70;1.33;;;17.40;99.90;;;;;;5015528;28;20170;-80
2022/08/29 03:31:41;;;;;;;4.30;1.30;;;17.30;99.90;;;;;;5014953;28;20168;-79
2022/08/29 03:34:06;;;;;;;2.60;1.63;;;17.30;99.90;;;;;;4997862;28;20172;-78
2022/08/29 03:36:32;;;;;;;3.30;1.40;;;17.30;99.90;;;;;;5015271;28;20213;-80
2022/08/29 03:38:58;;;;;;;6.17;1.23;;;17.30;99.90;;;;;;5015229;28;20192;-78
2022/08/29 03:41:28;;;;;;;4.10;1.60;;;17.30;99.90;;;;;;5014826;28;20217;-79
2022/08/29 03:43:55;;;;;;;4.80;2.20;;;17.30;99.90;;;;;;5015140;28;20168;-79
2022/08/29 03:46:21;;;;;;;1.97;0.80;;;17.20;99.90;;;;;;5015063;28;20417;-79
2022/08/29 03:48:47;;;;;;;2.83;1.87;;;17.10;99.90;;;;;;5014924;28;20463;-78
2022/08/29 03:51:14;;;;;;;7.73;2.07;;;17.00;99.90;;;;;;5015001;28;20423;-79
2022/08/29 03:53:39;;;;;;;2.43;0.90;;;16.90;99.90;;;;;;5014988;28;20407;-78
2022/08/29 03:56:06;;;;;;;3.77;1.13;;;16.80;99.90;;;;;;5014378;28;21017;-79
2022/08/29 03:58:32;;;;;;;4.93;1.67;;;16.70;99.90;;;;;;4995304;28;20265;-79
2022/08/29 04:00:57;;;;;;;2.60;1.57;;;16.50;99.90;;;;;;4995263;28;20497;-78
2022/08/29 04:03:23;;;;;;;4.40;1.40;;;16.50;99.90;;;;;;4995299;28;20414;-78
2022/08/29 04:05:49;;;;;;;4.00;1.53;;;16.50;99.90;;;;;;4995209;28;20602;-79
2022/08/29 04:08:14;;;;;;;5.23;2.13;;;16.50;99.90;;;;;;4995056;28;20174;-79
2022/08/29 04:10:40;;;;;;;6.43;2.23;;;16.50;99.90;;;;;;4994756;28;20175;-79
2022/08/29 04:13:06;;;;;;;6.60;1.97;;;16.50;99.90;;;;;;4994988;28;20213;-79
2022/08/29 04:15:33;;;;;;;3.83;2.00;;;16.60;99.90;;;;;;4994956;28;20177;-80
2022/08/29 04:18:00;;;;;;;5.63;1.77;;;16.60;99.90;;;;;;4994960;28;20431;-79
2022/08/29 04:20:30;;;;;;;4.57;3.20;;;16.70;99.90;;;;;;4994851;28;20476;-79
2022/08/29 04:22:58;;;;;;;4.47;1.80;;;16.70;99.90;;;;;;4994832;28;20473;-80
2022/08/29 04:25:28;;;;;;;4.17;2.17;;;16.80;99.90;;;;;;4994417;28;20945;-78
2022/08/29 04:27:56;;;;;;;6.10;1.90;;;16.80;99.90;;;;;;4994736;28;20410;-78
2022/08/29 04:30:23;;;;;;;5.50;1.80;;;16.90;99.90;;;;;;4994708;28;20416;-78
2022/08/29 04:32:52;;;;;;;7.83;2.43;;;16.90;99.90;;;;;;4993366;28;20428;-78
2022/08/29 04:35:18;;;;;;;3.83;1.97;;;16.90;99.90;;;;;;4993497;28;20416;-78
2022/08/29 04:37:43;;;;;;;6.63;2.23;;;17.00;99.90;;;;;;4994425;28;20473;-79
2022/08/29 04:40:15;;;;;;;4.57;1.50;;;17.00;99.90;;;;;;4992958;28;20442;-79
2022/08/29 04:42:41;;;;;;;4.27;2.47;;;17.00;99.90;;;;;;4993658;28;20953;-79
2022/08/29 04:45:11;;;;;;;10.17;2.80;;;17.00;99.90;;;;;;4994396;28;20512;-79
2022/08/29 04:47:37;;;;;;;10.87;2.53;;;17.10;99.90;;;;;;4994366;28;20416;-78
2022/08/29 04:50:04;;;;;;;3.67;2.50;;;17.10;99.90;;;;;;4994290;28;20462;-79
2022/08/29 04:52:30;;;;;;;4.13;2.03;;;17.10;99.90;;;;;;4994410;28;20438;-79
2022/08/29 04:54:56;;;;;;;9.60;2.03;;;17.10;99.90;;;;;;4993660;28;20421;-79
2022/08/29 04:57:22;;;;;;;5.80;2.20;;;17.10;99.90;;;;;;4992948;28;20491;-79
2022/08/29 04:59:55;;;;;;;3.80;1.80;;;17.10;99.90;;;;;;4994217;28;20190;-78
2022/08/29 05:02:21;;;;;;;4.87;1.87;;;17.20;99.90;;;;;;4994217;28;20815;-79
2022/08/29 05:04:51;;;;;;;3.40;1.60;;;17.20;99.90;;;;;;4994024;28;20946;-80
2022/08/29 05:07:21;;;;;;;6.03;3.17;;;17.20;99.90;;;;;;4994041;28;20418;-78
2022/08/29 05:09:48;;;;;;;4.80;2.20;;;17.20;99.90;;;;;;4993726;28;20419;-79
2022/08/29 05:12:14;;;;;;;5.17;2.07;;;17.20;99.90;;;;;;4976578;28;20421;-78
2022/08/29 05:14:39;;;;;;;4.00;2.57;;;17.30;99.90;;;;;;4993923;28;20773;-79
2022/08/29 05:17:05;;;;;;;3.37;2.83;;;17.30;99.90;;;;;;4993892;28;20208;-78
2022/08/29 05:19:30;;;;;;;6.77;2.57;;;17.30;99.90;;;;;;4993760;28;20662;-78
2022/08/29 05:21:57;;;;;;;4.57;3.47;;;17.30;99.90;;;;;;4993659;28;20171;-78
2022/08/29 05:24:23;;;;;;;4.97;3.00;;;17.30;99.90;;;;;;4976602;28;20175;-78
2022/08/29 05:26:48;;;;;;;5.23;2.93;;;17.30;99.90;;;;;;4993247;28;20429;-80
2022/08/29 05:29:14;;;;;;;3.20;2.13;;;17.30;99.90;;;;;;4993627;28;20178;-77
2022/08/29 05:31:41;;;;;;;5.20;2.77;;;17.30;99.90;;;;;;4993343;28;20189;-78
2022/08/29 05:34:07;;;;;;;4.13;2.43;;;17.20;99.90;;;;;;4992835;28;20178;-79
2022/08/29 05:36:33;;;;;;;3.37;2.40;;;17.30;99.90;;;;;;4993931;28;20948;-79
2022/08/29 05:39:02;;;;;;;5.87;3.10;;;17.30;99.90;;;;;;5013032;28;20453;-78
2022/08/29 05:41:28;;;;;;;2.40;1.60;;;17.20;99.90;;;;;;5012039;28;20208;-79
2022/08/29 05:43:55;;;;;;;5.10;2.13;;;17.30;99.90;;;;;;5012323;28;20425;-79
2022/08/29 05:46:21;;;;;;;5.27;2.47;;;17.30;99.90;;;;;;5005501;28;20189;-77
2022/08/29 05:48:47;;;;;;;4.97;2.60;;;17.30;99.90;;;;;;4993549;28;20512;-80
2022/08/29 05:51:23;;;;;;;3.90;2.00;;;17.30;99.90;;;;;;4993539;28;20168;-79
2022/08/29 05:53:48;;;;;;;4.50;2.33;;;17.40;99.90;;;;;;4993560;28;20417;-78
2022/08/29 05:56:25;;;;;;;2.47;1.63;;;17.30;99.90;;;;;;4979619;28;21135;-79
2022/08/29 05:58:51;;;;;;;4.00;2.40;;;17.40;99.90;;;;;;4997725;28;20529;-78
2022/08/29 06:01:28;;;;;;;5.57;3.00;;;17.50;99.90;;;;;;4997547;28;20422;-80
2022/08/29 06:03:55;;;;;;;3.30;1.67;;;17.70;99.90;;;;;;4997353;28;20410;-78
2022/08/29 06:06:25;;;;;;;4.97;1.80;;;17.70;99.90;;;;;;4997415;28;20509;-79
2022/08/29 06:08:52;;;;;;;3.07;1.77;;;18.60;99.90;;;;;;4997316;28;20438;-78
2022/08/29 06:11:23;;;;;;;3.63;1.73;;;18.70;99.90;;;;;;4996925;28;20422;-78
2022/08/29 06:13:49;;;;;;;4.13;1.77;;;18.50;99.90;;;;;;4996983;28;20768;-79
2022/08/29 06:16:18;;;;;;;5.00;1.73;;;18.30;99.90;;;;;;4979177;28;20546;-82
2022/08/29 06:18:44;;;;;;;3.13;1.50;;;18.00;99.90;;;;;;4979967;28;20180;-79
2022/08/29 06:21:11;;;;;;;1.90;0.90;;;17.90;99.90;;;;;;5007446;28;20436;-79
2022/08/29 06:23:38;;;;;;;3.67;1.57;;;17.70;99.90;;;;;;5016629;28;20405;-79
2022/08/29 06:26:04;;;;;;;2.20;1.27;;;17.70;99.90;;;;;;5016226;28;20417;-79
2022/08/29 06:28:30;;;;;;;2.73;0.90;;;17.70;99.90;;;;;;5016563;28;20419;-79
2022/08/29 06:31:03;;;;;;;3.57;1.07;;;17.80;99.90;;;;;;5016400;28;20471;-79
2022/08/29 06:33:29;;;;;;;2.50;1.07;;;17.80;99.90;;;;;;5016494;28;20952;-80
2022/08/29 06:35:54;;;;;;;1.87;0.47;;;18.20;99.90;;;;;;5016313;28;20497;-79
2022/08/29 06:38:20;;;;;;;1.37;0.83;;;18.30;99.90;;;;;;5016376;28;20533;-79
2022/08/29 06:40:45;;;;;;;2.03;0.73;;;20.10;99.90;;;;;;5015907;28;20186;-79
2022/08/29 06:43:11;;;;;;;1.53;0.57;;;23.30;1.00;;;;;;4999034;28;20645;-79
2022/08/29 06:45:41;;;;;;;2.20;0.77;;;24.60;99.90;;;;;;4998714;28;20266;-79
2022/08/29 06:48:06;;;;;;;1.40;0.30;;;24.40;99.90;;;;;;5016237;28;20178;-79
2022/08/29 06:50:35;;;;;;;1.93;0.60;;;25.00;99.90;;;;;;5016173;28;20932;-79
2022/08/29 06:53:01;;;;;;;0.90;0.40;;;22.50;1.00;;;;;;5015987;28;20575;-79
2022/08/29 06:55:27;;;;;;;1.07;0.47;;;23.70;1.00;;;;;;5015617;28;20515;-79
2022/08/29 06:57:55;;;;;;;2.70;0.47;;;22.40;50.50;;;;;;5016038;28;20183;-79
2022/08/29 07:00:22;;;;;;;1.17;0.60;;;20.90;1.00;;;;;;5015956;28;20668;-79
2022/08/29 07:02:48;;;;;;;1.20;0.87;;;20.40;1.00;;;;;;5015980;28;20413;-79
2022/08/29 07:05:14;;;;;;;0.80;0.40;;;19.80;1.00;;;;;;5015633;28;20417;-79
2022/08/29 07:07:40;;;;;;;1.33;0.40;;;22.30;1.00;;;;;;5015191;28;20472;-79
2022/08/29 07:10:07;;;;;;;1.27;0.30;;;21.50;1.00;;;;;;5015477;28;20163;-79
2022/08/29 07:12:33;;;;;;;0.97;0.20;;;21.30;5.60;;;;;;4998184;28;20421;-79
2022/08/29 07:15:00;;;;;;;1.03;0.30;;;20.70;1.00;;;;;;5015742;28;20910;-79
2022/08/29 07:17:27;;;;;;;0.60;0.20;;;24.20;1.00;;;;;;5015622;28;21072;-79
2022/08/29 07:19:53;;;;;;;1.20;0.20;;;25.10;99.90;;;;;;5015655;28;20406;-79
2022/08/29 07:22:18;;;;;;;0.80;0.30;;;25.00;99.90;;;;;;5015546;28;20501;-79
2022/08/29 07:24:44;;;;;;;1.17;0.40;;;24.10;99.90;;;;;;4997699;28;20186;-79
2022/08/29 07:27:11;;;;;;;0.70;0.20;;;23.70;1.00;;;;;;5015626;28;20177;-79
2022/08/29 07:29:37;;;;;;;0.67;0.30;;;25.10;99.90;;;;;;5015511;28;20179;-79
2022/08/29 07:32:04;;;;;;;0.80;0.50;;;24.30;99.90;;;;;;5015458;28;20525;-79
2022/08/29 07:34:29;;;;;;;1.00;0.30;;;27.10;99.90;;;;;;5015369;28;20910;-79
2022/08/29 07:36:55;;;;;;;1.17;0.73;;;27.50;99.90;;;;;;4997745;28;20478;-79
2022/08/29 07:39:21;;;;;;;0.60;0.30;;;27.90;99.90;;;;;;5014972;28;20217;-80
2022/08/29 07:41:47;;;;;;;0.90;0.20;;;25.60;99.90;;;;;;5015225;28;20179;-79
2022/08/29 07:44:14;;;;;;;0.73;0.20;;;22.90;1.00;;;;;;5015223;28;20449;-79
2022/08/29 07:46:40;;;;;;;1.13;0.40;;;23.30;1.00;;;;;;5015193;28;20426;-79
2022/08/29 07:49:06;;;;;;;0.83;0.20;;;22.60;99.90;;;;;;5015021;28;20421;-79
2022/08/29 07:51:31;;;;;;;0.90;0.57;;;21.30;99.90;;;;;;5015140;28;20414;-78
2022/08/29 07:53:57;;;;;;;2.13;0.53;;;24.10;99.90;;;;;;5021326;28;20626;-79
2022/08/29 07:56:43;;;;;;;0.70;0.40;;;23.30;1.00;;;;;;5014414;28;20233;-79
2022/08/29 07:59:09;;;;;;;0.60;0.27;;;25.10;99.90;;;;;;5014918;28;20175;-80
2022/08/29 08:01:35;;;;;;;4.10;0.40;;;26.80;99.90;;;;;;5014942;28;20894;-80
2022/08/29 08:04:01;;;;;;;1.37;0.30;;;28.00;99.90;;;;;;5014879;28;20433;-80
2022/08/29 08:06:26;;;;;;;0.80;0.20;;;27.40;72.30;;;;;;5014817;28;20496;-79
2022/08/29 08:08:52;;;;;;;2.00;0.53;;;24.20;99.90;;;;;;5014641;28;20174;-80
2022/08/29 08:11:19;;;;;;;2.80;0.30;;;22.40;1.00;;;;;;4996793;28;20174;-79
2022/08/29 08:13:46;;;;;;;1.10;0.30;;;21.60;1.00;;;;;;5014578;28;20171;-79
2022/08/29 08:16:17;;;;;;;0.90;0.30;;;22.70;30.90;;;;;;5014510;28;20996;-79
2022/08/29 08:18:46;;;;;;;1.07;0.30;;;25.10;99.90;;;;;;5014413;28;20418;-79
2022/08/29 08:21:12;;;;;;;0.60;0.30;;;25.30;99.90;;;;;;5014444;28;20421;-79
2022/08/29 08:23:38;;;;;;;0.60;0.20;;;24.20;99.90;;;;;;5014367;28;20442;-80
2022/08/29 08:26:05;;;;;;;0.70;0.30;;;23.00;1.00;;;;;;5013894;28;20418;-79
2022/08/29 08:28:30;;;;;;;0.60;0.20;;;23.50;37.60;;;;;;5014338;28;20414;-79
2022/08/29 08:30:57;;;;;;;0.60;0.20;;;25.30;99.90;;;;;;5014469;28;20418;-79
2022/08/29 08:33:23;;;;;;;1.13;0.40;;;26.30;99.90;;;;;;5014229;28;20220;-79
2022/08/29 08:35:49;;;;;;;0.50;0.20;;;26.90;99.90;;;;;;5014053;28;20422;-80
2022/08/29 08:38:15;;;;;;;1.00;0.20;;;27.00;99.90;;;;;;5014071;28;20414;-80
2022/08/29 08:40:46;;;;;;;0.60;0.30;;;25.10;99.90;;;;;;5013847;28;20186;-80
2022/08/29 08:43:19;;;;;;;1.43;0.47;;;23.50;99.90;;;;;;5014264;28;20418;-79
2022/08/29 08:45:45;;;;;;;1.73;0.33;;;23.00;99.90;;;;;;5014085;28;20446;-80
2022/08/29 08:48:21;;;;;;;1.83;0.40;;;22.70;99.90;;;;;;5014127;28;20457;-79
2022/08/29 08:51:00;;;;;;;1.83;0.77;;;22.10;1.00;;;;;;5014038;28;20261;-80
2022/08/29 08:53:34;;;;;;;1.43;0.50;;;21.80;99.90;;;;;;5014015;28;20493;-79
2022/08/29 08:56:06;;;;;;;1.60;0.70;;;21.80;41.80;;;;;;5013403;28;20512;-79
2022/08/29 08:58:55;;;;;;;1.93;0.20;;;22.10;99.90;;;;;;5013905;28;20910;-79
2022/08/29 09:01:30;;;;;;;1.10;0.30;;;22.20;1.00;;;;;;5013885;28;20410;-79
2022/08/29 09:04:19;;;;;;;0.63;0.30;;;22.10;1.00;;;;;;5013741;28;20452;-79
2022/08/29 09:06:52;;;;;;;1.43;0.50;;;23.20;99.90;;;;;;5013696;28;20410;-79
2022/08/29 09:09:40;;;;;;;1.20;0.30;;;23.90;1.00;;;;;;5013347;28;20914;-79
2022/08/29 09:12:20;;;;;;;0.80;0.30;;;25.60;99.90;;;;;;5013619;28;20484;-79
2022/08/29 09:15:08;;;;;;;0.73;0.40;;;27.10;99.90;;;;;;5013603;28;20464;-79
2022/08/29 09:17:43;;;;;;;0.73;0.30;;;27.80;99.90;;;;;;5013581;28;20470;-79
2022/08/29 09:20:21;;;;;;;1.50;0.50;;;26.40;99.90;;;;;;5013388;28;20417;-80
2022/08/29 09:23:01;;;;;;;0.63;0.20;;;24.50;99.90;;;;;;5013496;28;20424;-79
2022/08/29 09:25:29;;;;;;;1.07;0.20;;;23.30;99.90;;;;;;5012930;28;20752;-79
2022/08/29 09:27:56;;;;;;;1.23;0.20;;;25.30;99.90;;;;;;5013368;28;20421;-80
2022/08/29 09:30:26;;;;;;;2.43;0.40;;;25.90;99.90;;;;;;5012891;28;20414;-80
2022/08/29 09:32:54;;;;;;;0.50;0.20;;;25.80;99.90;;;;;;5013441;28;20995;-79
2022/08/29 09:35:23;;;;;;;1.67;0.30;;;25.90;99.90;;;;;;5013286;28;20960;-79
2022/08/29 09:38:01;;;;;;;0.90;0.40;;;24.60;99.90;;;;;;5011903;28;20545;-79
2022/08/29 09:40:51;;;;;;;0.80;0.20;;;26.80;99.90;;;;;;5012676;28;20492;-80
2022/08/29 09:43:20;;;;;;;5.13;0.40;;;27.60;99.90;;;;;;5013105;28;20454;-80
2022/08/29 09:46:24;;;;;;;1.13;0.20;;;28.40;86.30;;;;;;5013203;28;20445;-80
2022/08/29 09:48:56;;;;;;;1.57;0.30;;;29.30;56.60;;;;;;4933495;29;20814;-80
2022/08/29 09:51:31;;;;;;;0.60;0.20;;;27.60;44.20;;;;;;5002096;28;20428;-80
2022/08/29 09:54:24;;;;;;;1.03;0.30;;;26.00;83.60;;;;;;5012680;28;20409;-80
2022/08/29 09:57:01;;;;;;;0.50;0.30;;;24.80;99.90;;;;;;5012940;28;20836;-79
2022/08/29 09:59:34;;;;;;;1.13;0.20;;;24.00;99.90;;;;;;5013145;28;20409;-79
2022/08/29 10:02:20;;;;;;;0.70;0.20;;;23.30;99.90;;;;;;5013121;28;20428;-79
2022/08/29 10:04:51;;;;;;;1.00;0.57;;;22.80;1.00;;;;;;5013004;28;20425;-79
2022/08/29 10:07:21;;;;;;;0.90;0.30;;;23.00;1.00;;;;;;5013100;28;20422;-79
2022/08/29 10:10:00;;;;;;;1.17;0.23;;;23.70;1.00;;;;;;5012564;28;20425;-79
2022/08/29 10:12:55;;;;;;;2.43;0.27;;;23.70;99.90;;;;;;5012946;28;20417;-79
2022/08/29 10:15:26;;;;;;;1.23;0.47;;;23.90;99.90;;;;;;5012989;28;20519;-79
2022/08/29 10:18:27;;;;;;;0.73;0.37;;;24.90;99.90;;;;;;5012850;28;20882;-79
2022/08/29 10:21:09;;;;;;;0.97;0.20;;;24.10;99.90;;;;;;5012876;28;20418;-79
2022/08/29 10:24:14;;;;;;;0.90;0.20;;;23.60;99.90;;;;;;5012828;28;20402;-78
2022/08/29 10:26:48;;;;;;;0.50;0.40;;;24.60;99.90;;;;;;5012931;28;20418;-79
2022/08/29 10:29:46;;;;;;;0.40;0.20;;;24.10;99.90;;;;;;5012846;28;20417;-79
2022/08/29 10:32:50;;;;;;;0.70;0.30;;;23.80;99.90;;;;;;5012812;28;20910;-79
2022/08/29 10:35:32;;;;;;;0.87;0.20;;;24.50;99.90;;;;;;5012140;28;20434;-79
2022/08/29 10:38:21;;;;;;;1.23;0.20;;;24.50;99.90;;;;;;5011373;28;20528;-79
2022/08/29 10:41:11;;;;;;;1.50;0.40;;;24.00;99.90;;;;;;5012478;28;20414;-83
2022/08/29 10:44:00;;;;;;;0.93;0.40;;;23.50;99.90;;;;;;5016315;28;20414;-78
2022/08/29 10:46:37;;;;;;;0.57;0.23;;;23.10;99.90;;;;;;5016316;28;20410;-85
2022/08/29 10:49:36;;;;;;;1.23;0.30;;;22.80;1.00;;;;;;5016223;28;20532;-84
2022/08/29 10:52:23;;;;;;;0.40;0.20;;;22.90;99.90;;;;;;5016101;28;20402;-83
2022/08/29 10:55:14;;;;;;;0.90;0.20;;;23.50;1.00;;;;;;5015414;28;20420;-81
2022/08/29 10:58:04;;;;;;;0.80;0.30;;;24.00;99.90;;;;;;5018465;28;20528;-82
2022/08/29 11:00:58;;;;;;;0.50;0.30;;;24.30;99.90;;;;;;5016026;28;20414;-82
2022/08/29 11:04:06;;;;;;;0.50;0.20;;;24.70;99.90;;;;;;5015760;28;20994;-83
2022/08/29 11:06:39;;;;;;;0.60;0.20;;;24.80;99.90;;;;;;5015894;28;20426;-81
2022/08/29 11:09:28;;;;;;;1.37;0.20;;;23.90;99.90;;;;;;5015520;28;20436;-80
2022/08/29 11:12:20;;;;;;;0.40;0.20;;;23.20;1.00;;;;;;5015632;28;20541;-82
2022/08/29 11:14:52;;;;;;;1.23;0.20;;;22.90;1.00;;;;;;5015764;28;20432;-79
2022/08/29 11:17:23;;;;;;;0.50;0.20;;;22.80;1.00;;;;;;5015618;28;20819;-78
2022/08/29 11:20:04;;;;;;;0.70;0.40;;;22.70;1.00;;;;;;5015624;28;20418;-83
2022/08/29 11:22:42;;;;;;;1.23;0.20;;;22.70;99.90;;;;;;5015616;28;20928;-84
2022/08/29 11:25:11;;;;;;;2.13;0.30;;;22.60;1.00;;;;;;5015207;28;20418;-83
2022/08/29 11:27:45;;;;;;;0.60;0.20;;;22.90;1.00;;;;;;5015494;28;20410;-83
2022/08/29 11:30:21;;;;;;;0.80;0.20;;;23.20;99.90;;;;;;5015522;28;20472;-83
2022/08/29 11:33:07;;;;;;;0.57;0.20;;;23.30;1.00;;;;;;5015293;28;20414;-86
2022/08/29 11:35:54;;;;;;;0.50;0.40;;;23.70;1.00;;;;;;5015430;28;20496;-85
2022/08/29 11:38:34;;;;;;;0.40;0.20;;;24.30;99.90;;;;;;5015339;28;20438;-85
2022/08/29 11:41:19;;;;;;;0.70;0.20;;;23.90;99.90;;;;;;5014827;28;20414;-85
2022/08/29 11:43:49;;;;;;;0.40;0.20;;;24.90;99.90;;;;;;5014958;28;20544;-83
2022/08/29 11:46:28;;;;;;;0.80;0.20;;;25.60;99.90;;;;;;5015039;28;20422;-85
2022/08/29 11:49:29;;;;;;;0.67;0.20;;;25.40;99.90;;;;;;5015129;28;20425;-85
2022/08/29 11:51:59;;;;;;;0.40;0.20;;;25.60;99.90;;;;;;5014601;28;20414;-81
2022/08/29 11:54:25;;;;;;;1.27;0.20;;;24.80;99.90;;;;;;5014586;28;20484;-82
2022/08/29 11:56:59;;;;;;;0.50;0.20;;;24.20;99.90;;;;;;5014634;28;20527;-86
2022/08/29 11:59:44;;;;;;;0.57;0.20;;;23.80;1.00;;;;;;4997270;28;20535;-85
2022/08/29 12:02:29;;;;;;;0.47;0.30;;;23.70;1.00;;;;;;5014805;28;20425;-79
2022/08/29 12:05:04;;;;;;;0.70;0.20;;;23.60;99.90;;;;;;5014546;28;20426;-79
2022/08/29 12:07:50;;;;;;;0.57;0.20;;;23.50;99.90;;;;;;5014753;28;20483;-80
2022/08/29 12:10:22;;;;;;;1.33;0.30;;;23.50;99.90;;;;;;5014367;28;20501;-79
2022/08/29 12:12:50;;;;;;;0.87;0.20;;;23.60;99.90;;;;;;5014706;28;20456;-81
2022/08/29 12:15:31;;;;;;;3.40;0.30;;;23.70;99.90;;;;;;5014519;28;21011;-85
2022/08/29 12:18:21;;;;;;;1.63;0.20;;;23.70;99.90;;;;;;5014529;28;20809;-83
2022/08/29 12:20:52;;;;;;;1.77;0.37;;;23.50;99.90;;;;;;4996734;28;20430;-82
2022/08/29 12:23:27;;;;;;;0.30;0.20;;;23.20;1.00;;;;;;5014440;28;20429;-80
2022/08/29 12:25:53;;;;;;;0.47;0.30;;;23.00;99.90;;;;;;5014365;28;20474;-81
2022/08/29 12:28:26;;;;;;;0.90;0.40;;;23.00;99.90;;;;;;5014232;28;20488;-84
2022/08/29 12:30:58;;;;;;;0.50;0.20;;;22.90;99.90;;;;;;5014449;28;20410;-83
2022/08/29 12:33:58;;;;;;;0.60;0.20;;;23.00;78.80;;;;;;5014387;28;20436;-81
2022/08/29 12:36:49;;;;;;;0.50;0.20;;;23.20;99.90;;;;;;5014231;28;20826;-80
2022/08/29 12:39:28;;;;;;;0.90;0.40;;;23.10;1.00;;;;;;5013903;28;20788;-83
2022/08/29 12:42:37;;;;;;;1.23;0.20;;;23.20;99.90;;;;;;5014228;28;20421;-83
2022/08/29 12:45:10;;;;;;;0.90;0.30;;;23.30;99.90;;;;;;5014099;28;20421;-83
2022/08/29 12:47:45;;;;;;;1.07;0.20;;;23.20;1.00;;;;;;4996432;28;20418;-83
2022/08/29 12:50:27;;;;;;;1.17;0.20;;;23.20;1.00;;;;;;5014051;28;20483;-80
2022/08/29 12:53:05;;;;;;;1.27;0.40;;;22.90;1.00;;;;;;5013999;28;20414;-81
2022/08/29 12:55:40;;;;;;;1.40;0.20;;;22.70;1.00;;;;;;5013386;28;20506;-81
2022/08/29 12:58:08;;;;;;;2.40;0.73;;;23.00;99.90;;;;;;5013852;28;20449;-82
2022/08/29 13:00:34;;;;;;;0.60;0.40;;;23.50;1.00;;;;;;5013862;28;21005;-79
2022/08/29 13:03:08;;;;;;;0.70;0.20;;;24.00;99.90;;;;;;5013806;28;20946;-84
2022/08/29 13:05:37;;;;;;;0.57;0.20;;;24.50;99.90;;;;;;5013241;28;20429;-80
2022/08/29 13:08:12;;;;;;;0.50;0.20;;;24.40;99.90;;;;;;5013708;28;20425;-79
2022/08/29 13:10:49;;;;;;;0.50;0.20;;;23.80;99.90;;;;;;5013028;28;20424;-80